Time;durP1;ratioP1;P1;durP2;ratioP2;P2;SDS_P1;SDS_P2;PMS_P1;PMS_P2;Temp;Humidity;BMP_temperature;BMP_pressure;BME280_temperature;BME280_humidity;BME280_pressure;Samples;Min_cycle;Max_cycle;Signal;HPM_P1;HPM_P2
2023/01/18 00:01:37;;;;;;;26.67;13.25;;;2.50;90.90;;;;;;5040088;28;20122;-73
2023/01/18 00:04:02;;;;;;;24.95;13.07;;;2.50;91.00;;;;;;5025821;28;20028;-72
2023/01/18 00:06:29;;;;;;;21.02;12.88;;;2.50;91.00;;;;;;5033790;28;20056;-72
2023/01/18 00:08:54;;;;;;;23.73;12.70;;;2.50;91.10;;;;;;5040507;28;20021;-73
2023/01/18 00:11:20;;;;;;;24.65;14.05;;;2.50;91.10;;;;;;5016725;28;20484;-73
2023/01/18 00:13:50;;;;;;;20.95;12.90;;;2.40;91.00;;;;;;5037162;28;20483;-75
2023/01/18 00:16:18;;;;;;;17.98;12.20;;;2.40;90.90;;;;;;5033709;28;20041;-72
2023/01/18 00:18:51;;;;;;;29.77;13.55;;;2.40;91.00;;;;;;5033223;28;20031;-72
2023/01/18 00:21:17;;;;;;;27.27;13.88;;;2.40;91.10;;;;;;5041394;28;20025;-72
2023/01/18 00:23:42;;;;;;;20.70;12.15;;;2.40;91.10;;;;;;5021348;28;20043;-72
2023/01/18 00:26:10;;;;;;;27.63;14.20;;;2.30;91.10;;;;;;5020272;28;20018;-72
2023/01/18 00:28:37;;;;;;;25.85;13.23;;;2.30;91.10;;;;;;5016852;28;20032;-73
2023/01/18 00:31:11;;;;;;;20.60;12.75;;;2.30;91.10;;;;;;5023969;28;20037;-73
2023/01/18 00:33:37;;;;;;;20.70;13.52;;;2.30;91.20;;;;;;5032091;28;20036;-73
2023/01/18 00:36:03;;;;;;;27.05;13.05;;;2.30;91.30;;;;;;5034425;28;20024;-73
2023/01/18 00:38:29;;;;;;;23.48;13.07;;;2.30;91.40;;;;;;5035662;28;20049;-73
2023/01/18 00:40:55;;;;;;;21.13;12.38;;;2.30;91.40;;;;;;5038992;28;20083;-73
2023/01/18 00:43:40;;;;;;;24.48;14.18;;;2.30;91.40;;;;;;5020598;28;20478;-73
2023/01/18 00:46:09;;;;;;;22.88;13.43;;;2.30;91.40;;;;;;5040803;28;20026;-73
2023/01/18 00:48:40;;;;;;;25.65;13.95;;;2.20;91.30;;;;;;5038407;28;20031;-73
2023/01/18 00:51:09;;;;;;;;;;;2.20;91.30;;;;;;5043383;28;20159;-73
2023/01/18 00:53:36;;;;;;;28.48;13.85;;;2.20;91.40;;;;;;5036981;28;19912;-73
2023/01/18 00:56:07;;;;;;;22.10;12.38;;;2.10;91.30;;;;;;5036429;28;20052;-75
2023/01/18 00:58:33;;;;;;;22.33;13.30;;;2.10;91.40;;;;;;5041112;28;20033;-74
2023/01/18 01:01:00;;;;;;;22.13;13.35;;;2.10;91.50;;;;;;5038780;28;20139;-73
2023/01/18 01:03:27;;;;;;;24.63;12.93;;;2.10;91.50;;;;;;5033928;28;20545;-74
2023/01/18 01:08:40;;;;;;;24.35;13.45;;;2.10;91.50;;;;;;5034443;28;20758;-74
2023/01/18 01:11:11;;;;;;;24.27;12.88;;;2.00;91.60;;;;;;5040989;28;20048;-74
2023/01/18 01:27:19;;;;;;;24.63;14.13;;;2.00;91.70;;;;;;5031605;28;20175;-73
2023/01/18 01:29:45;;;;;;;24.35;14.82;;;2.00;91.70;;;;;;5034641;28;20407;-74
2023/01/18 01:32:12;;;;;;;22.20;14.30;;;2.00;91.70;;;;;;5040843;28;20312;-73
2023/01/18 01:34:37;;;;;;;22.45;13.02;;;2.00;91.70;;;;;;5038091;28;20423;-73
2023/01/18 01:37:03;;;;;;;24.25;13.55;;;2.00;91.70;;;;;;5042249;28;20135;-74
2023/01/18 01:39:29;;;;;;;25.38;13.57;;;2.00;91.80;;;;;;5035157;28;20048;-73
2023/01/18 01:41:54;;;;;;;22.42;13.65;;;1.90;91.70;;;;;;5037934;28;20029;-73
2023/01/18 01:44:23;;;;;;;23.35;13.65;;;2.00;91.80;;;;;;5035420;28;20475;-73
2023/01/18 01:47:00;;;;;;;22.65;13.13;;;1.90;92.10;;;;;;5034613;28;20061;-73
2023/01/18 01:49:33;;;;;;;20.10;12.95;;;1.90;91.80;;;;;;5034312;28;20462;-73
2023/01/18 01:52:19;;;;;;;24.67;14.43;;;1.90;91.80;;;;;;5034099;28;20059;-73
2023/01/18 01:55:11;;;;;;;24.58;13.90;;;1.90;91.80;;;;;;5036810;28;20028;-73
2023/01/18 01:57:51;;;;;;;23.20;14.23;;;1.90;91.80;;;;;;5030347;28;20526;-73
2023/01/18 02:00:18;;;;;;;;;;;1.90;91.90;;;;;;5037235;28;20029;-73
2023/01/18 02:02:54;;;;;;;22.40;12.95;;;1.80;91.90;;;;;;5035869;28;19913;-74
2023/01/18 02:05:20;;;;;;;27.55;14.40;;;1.80;91.90;;;;;;5033637;28;20024;-73
2023/01/18 02:07:47;;;;;;;24.60;14.48;;;1.80;92.00;;;;;;5039523;28;20083;-73
2023/01/18 02:10:14;;;;;;;26.10;14.00;;;1.70;92.10;;;;;;5035922;28;20017;-71
2023/01/18 02:12:42;;;;;;;21.75;14.05;;;1.70;92.10;;;;;;5022095;28;20491;-73
2023/01/18 02:15:09;;;;;;;32.58;15.70;;;1.80;92.10;;;;;;5033725;28;20566;-73
2023/01/18 02:17:34;;;;;;;27.35;13.90;;;1.80;92.10;;;;;;5039797;28;20041;-72
2023/01/18 02:20:09;;;;;;;24.92;14.10;;;1.80;92.20;;;;;;5036245;28;20055;-73
2023/01/18 02:23:10;;;;;;;22.08;14.20;;;1.80;92.10;;;;;;5033331;28;20399;-73
2023/01/18 02:25:48;;;;;;;23.40;13.48;;;1.80;92.10;;;;;;5041987;28;20495;-74
2023/01/18 02:28:20;;;;;;;24.80;15.35;;;1.80;92.10;;;;;;5037444;28;20143;-74
2023/01/18 02:31:05;;;;;;;20.20;13.32;;;1.80;92.10;;;;;;5037989;28;20046;-72
2023/01/18 02:33:37;;;;;;;25.92;15.02;;;1.80;92.10;;;;;;5035632;28;20026;-72
2023/01/18 02:36:04;;;;;;;27.17;14.60;;;1.80;92.10;;;;;;5035643;28;20488;-74
2023/01/18 02:38:45;;;;;;;23.52;13.52;;;1.70;92.20;;;;;;5043381;28;20045;-73
2023/01/18 02:47:16;;;;;;;23.75;13.73;;;1.70;92.40;;;;;;5042557;28;20087;-73
2023/01/18 02:49:42;;;;;;;26.42;15.88;;;1.70;92.40;;;;;;5046143;28;20790;-73
2023/01/18 02:52:36;;;;;;;25.13;15.10;;;1.70;92.50;;;;;;5044131;28;20084;-73
2023/01/18 02:55:02;;;;;;;22.48;14.20;;;1.70;92.60;;;;;;5040845;28;20040;-72
2023/01/18 02:57:29;;;;;;;27.13;14.70;;;1.60;92.60;;;;;;5041219;28;20878;-73
2023/01/18 02:59:56;;;;;;;27.10;15.50;;;1.60;92.70;;;;;;5041222;28;20029;-73
2023/01/18 03:02:25;;;;;;;25.20;14.73;;;1.60;92.70;;;;;;5021805;28;20440;-73
2023/01/18 03:04:55;;;;;;;27.52;15.18;;;1.70;92.70;;;;;;5021972;28;20036;-72
2023/01/18 03:07:31;;;;;;;22.67;14.43;;;1.70;92.80;;;;;;5041842;28;20029;-72
2023/01/18 03:10:00;;;;;;;27.27;15.95;;;1.70;92.80;;;;;;5039635;28;20028;-72
2023/01/18 03:12:45;;;;;;;28.75;14.52;;;1.60;92.70;;;;;;5039808;28;20035;-73
2023/01/18 03:15:32;;;;;;;29.17;15.50;;;1.70;92.70;;;;;;5039472;28;20117;-72
2023/01/18 03:18:10;;;;;;;26.17;15.45;;;1.60;92.80;;;;;;5038046;28;20372;-72
2023/01/18 03:20:41;;;;;;;25.58;14.93;;;1.60;92.80;;;;;;5038560;28;20045;-72
2023/01/18 03:23:37;;;;;;;24.73;14.80;;;1.60;92.90;;;;;;5037284;28;20127;-72
2023/01/18 03:26:19;;;;;;;27.02;14.40;;;1.60;92.90;;;;;;5042278;28;20059;-73
2023/01/18 03:34:55;;;;;;;24.70;13.40;;;1.50;93.10;;;;;;5038950;28;20032;-73
2023/01/18 03:37:31;;;;;;;25.73;15.33;;;1.50;93.10;;;;;;5042177;28;20051;-73
2023/01/18 03:40:03;;;;;;;24.88;15.52;;;1.50;93.10;;;;;;5040384;28;20311;-74
2023/01/18 03:42:52;;;;;;;23.02;13.90;;;1.50;93.10;;;;;;5042191;28;20036;-72
2023/01/18 03:45:29;;;;;;;24.88;14.85;;;1.50;93.10;;;;;;5037999;28;20104;-73
2023/01/18 03:47:55;;;;;;;29.27;14.68;;;1.50;93.20;;;;;;5039398;28;20029;-73
2023/01/18 03:50:33;;;;;;;26.00;15.07;;;1.50;93.30;;;;;;5036339;28;20091;-72
2023/01/18 03:53:06;;;;;;;26.95;15.38;;;1.60;93.40;;;;;;5039911;28;20065;-72
2023/01/18 03:55:49;;;;;;;26.63;14.50;;;1.60;93.30;;;;;;5037070;28;20028;-73
2023/01/18 03:58:21;;;;;;;24.13;14.65;;;1.60;93.10;;;;;;5035390;28;20133;-71
2023/01/18 04:00:47;;;;;;;24.50;15.68;;;1.60;93.10;;;;;;5032668;28;20505;-72
2023/01/18 04:03:12;;;;;;;26.73;15.38;;;1.60;93.10;;;;;;5041416;28;20020;-74
2023/01/18 04:05:38;;;;;;;24.27;13.82;;;1.60;93.20;;;;;;5020764;28;20036;-74
2023/01/18 04:08:04;;;;;;;23.55;15.10;;;1.60;93.20;;;;;;5038435;28;20073;-73
2023/01/18 04:10:30;;;;;;;24.88;15.65;;;1.60;93.20;;;;;;5036528;28;20047;-72
2023/01/18 04:12:56;;;;;;;24.45;15.35;;;1.50;93.20;;;;;;5038976;28;20022;-73
2023/01/18 04:15:22;;;;;;;21.33;14.93;;;1.60;93.20;;;;;;5032924;28;20527;-72
2023/01/18 04:17:51;;;;;;;21.08;14.02;;;1.50;93.20;;;;;;5038884;28;20025;-72
2023/01/18 04:20:18;;;;;;;24.73;15.17;;;1.50;93.20;;;;;;5035564;28;20021;-72
2023/01/18 04:22:43;;;;;;;22.05;15.75;;;1.50;93.20;;;;;;5035973;28;20279;-72
2023/01/18 04:25:09;;;;;;;27.55;15.25;;;1.50;93.20;;;;;;5020048;28;20384;-75
2023/01/18 04:27:34;;;;;;;22.98;14.77;;;1.50;93.30;;;;;;5042510;28;20577;-72
2023/01/18 04:30:00;;;;;;;26.33;15.88;;;1.50;93.40;;;;;;5031476;28;20116;-74
2023/01/18 04:32:27;;;;;;;21.80;14.75;;;1.50;93.40;;;;;;5040258;28;20031;-74
2023/01/18 04:34:53;;;;;;;27.52;15.13;;;1.50;93.40;;;;;;5031049;28;20110;-73
2023/01/18 04:37:19;;;;;;;21.02;15.07;;;1.50;93.40;;;;;;5038061;28;20309;-72
2023/01/18 04:39:46;;;;;;;28.25;15.65;;;1.50;93.50;;;;;;5038443;28;20051;-72
2023/01/18 04:42:12;;;;;;;23.95;14.77;;;1.50;93.50;;;;;;5031604;28;20108;-72
2023/01/18 04:44:37;;;;;;;22.45;14.45;;;1.50;93.50;;;;;;5041267;28;20111;-73
2023/01/18 04:47:03;;;;;;;22.10;14.43;;;1.50;93.60;;;;;;5029522;28;20140;-73
2023/01/18 04:49:28;;;;;;;21.52;14.98;;;1.50;93.50;;;;;;5019065;28;20064;-73
2023/01/18 04:51:54;;;;;;;24.70;15.05;;;1.50;93.50;;;;;;5037416;28;20029;-73
2023/01/18 04:54:20;;;;;;;21.85;14.60;;;1.50;93.50;;;;;;5037711;28;20029;-73
2023/01/18 04:56:45;;;;;;;25.88;15.13;;;1.50;93.60;;;;;;5032501;28;20080;-73
2023/01/18 04:59:16;;;;;;;24.58;14.25;;;1.50;93.60;;;;;;5036695;28;20041;-73
2023/01/18 05:01:41;;;;;;;21.98;13.77;;;1.50;93.70;;;;;;5016888;28;20031;-73
2023/01/18 05:04:07;;;;;;;21.83;13.70;;;1.40;93.70;;;;;;5037804;28;20033;-73
2023/01/18 05:06:33;;;;;;;25.23;14.63;;;1.40;93.80;;;;;;5017673;28;20462;-72
2023/01/18 05:08:58;;;;;;;24.30;14.27;;;1.40;93.80;;;;;;5024384;28;20084;-73
2023/01/18 05:11:24;;;;;;;25.80;13.98;;;1.40;93.80;;;;;;5039522;28;20037;-73
2023/01/18 05:13:50;;;;;;;23.80;14.60;;;1.40;94.00;;;;;;5021023;28;20029;-72
2023/01/18 05:16:20;;;;;;;24.60;15.60;;;1.40;94.00;;;;;;5030142;28;20673;-72
2023/01/18 05:18:46;;;;;;;21.67;13.30;;;1.40;94.00;;;;;;5035781;28;20044;-73
2023/01/18 05:21:12;;;;;;;20.80;13.70;;;1.40;94.00;;;;;;5038470;28;20029;-73
2023/01/18 05:23:39;;;;;;;24.17;13.63;;;1.30;94.10;;;;;;5039053;28;20029;-73
2023/01/18 05:26:13;;;;;;;26.65;14.07;;;1.40;94.20;;;;;;5038128;28;20033;-71
2023/01/18 05:28:39;;;;;;;22.60;14.10;;;1.40;94.00;;;;;;5035373;28;20021;-73
2023/01/18 05:31:05;;;;;;;26.42;14.23;;;1.40;94.00;;;;;;5038341;28;20136;-72
2023/01/18 05:33:31;;;;;;;24.63;14.35;;;1.40;94.10;;;;;;5036464;28;20112;-73
2023/01/18 05:35:57;;;;;;;25.10;12.88;;;1.40;94.10;;;;;;5040653;28;20108;-73
2023/01/18 05:38:23;;;;;;;25.88;14.18;;;1.40;94.10;;;;;;5013790;28;20033;-74
2023/01/18 05:40:52;;;;;;;23.60;13.15;;;1.40;94.10;;;;;;5035856;28;20033;-73
2023/01/18 05:43:19;;;;;;;20.77;13.60;;;1.40;94.10;;;;;;5032356;28;20021;-74
2023/01/18 05:45:44;;;;;;;21.52;14.13;;;1.40;94.10;;;;;;5040265;28;20033;-73
2023/01/18 05:48:10;;;;;;;21.45;14.13;;;1.40;94.10;;;;;;5035959;28;20032;-72
2023/01/18 05:50:44;;;;;;;23.83;14.27;;;1.30;94.20;;;;;;5042120;28;20191;-73
2023/01/18 05:53:11;;;;;;;24.58;14.10;;;1.40;94.10;;;;;;5041265;28;20510;-72
2023/01/18 05:55:36;;;;;;;23.05;14.32;;;1.40;94.00;;;;;;5034988;28;20030;-72
2023/01/18 05:58:05;;;;;;;20.70;13.77;;;1.40;93.90;;;;;;5031537;28;20033;-73
2023/01/18 06:00:31;;;;;;;22.20;14.52;;;1.40;93.90;;;;;;5042015;28;20040;-73
2023/01/18 06:02:56;;;;;;;24.88;14.70;;;1.40;93.70;;;;;;5035491;28;20018;-73
2023/01/18 06:05:23;;;;;;;24.95;13.65;;;1.40;93.70;;;;;;5039001;28;20363;-73
2023/01/18 06:07:49;;;;;;;25.33;14.30;;;1.40;93.60;;;;;;5039778;28;20104;-72
2023/01/18 06:10:16;;;;;;;22.73;14.35;;;1.40;93.60;;;;;;5041268;28;20514;-73
2023/01/18 06:12:43;;;;;;;20.63;13.45;;;1.40;93.50;;;;;;5039037;28;20028;-73
2023/01/18 06:15:10;;;;;;;27.67;14.55;;;1.40;93.40;;;;;;5040907;28;20075;-73
2023/01/18 06:17:36;;;;;;;26.77;15.63;;;1.40;93.40;;;;;;5042144;28;20087;-74
2023/01/18 06:20:03;;;;;;;26.73;14.15;;;1.50;93.40;;;;;;5037767;28;20037;-73
2023/01/18 06:22:29;;;;;;;26.27;15.45;;;1.40;93.30;;;;;;5044892;28;20057;-73
2023/01/18 06:24:55;;;;;;;21.80;13.45;;;1.40;93.30;;;;;;5034412;28;20109;-74
2023/01/18 06:27:20;;;;;;;27.30;14.65;;;1.40;93.20;;;;;;5035499;28;20029;-73
2023/01/18 06:29:46;;;;;;;22.58;14.27;;;1.40;93.00;;;;;;5033964;28;20048;-72
2023/01/18 06:32:12;;;;;;;22.73;14.27;;;1.40;93.20;;;;;;5043033;28;20021;-73
2023/01/18 06:34:37;;;;;;;26.70;14.45;;;1.40;93.30;;;;;;5042294;28;20045;-72
2023/01/18 06:37:03;;;;;;;24.13;14.15;;;1.40;93.40;;;;;;5044514;28;20043;-73
2023/01/18 06:39:31;;;;;;;24.15;14.15;;;1.40;93.40;;;;;;5036978;28;20049;-71
2023/01/18 06:41:58;;;;;;;25.58;14.82;;;1.40;93.30;;;;;;5037363;28;20498;-72
2023/01/18 06:44:23;;;;;;;26.80;14.70;;;1.40;93.20;;;;;;5019576;28;20029;-73
2023/01/18 06:46:50;;;;;;;25.83;14.27;;;1.40;93.30;;;;;;5036706;28;20391;-73
2023/01/18 06:49:15;;;;;;;24.52;15.55;;;1.40;93.50;;;;;;5037985;28;20033;-72
2023/01/18 06:51:41;;;;;;;21.83;13.98;;;1.40;93.70;;;;;;5035343;28;20017;-74
2023/01/18 06:54:07;;;;;;;27.92;14.95;;;1.30;93.90;;;;;;5017184;28;20590;-74
2023/01/18 06:56:34;;;;;;;25.58;14.50;;;1.30;93.90;;;;;;5032304;28;20014;-73
2023/01/18 06:58:59;;;;;;;23.80;13.27;;;1.30;94.00;;;;;;5039183;28;20074;-72
2023/01/18 07:01:26;;;;;;;23.33;13.43;;;1.20;94.00;;;;;;5040031;28;20025;-73
2023/01/18 07:03:52;;;;;;;19.38;11.90;;;1.20;94.20;;;;;;5023673;28;20025;-73
2023/01/18 07:06:18;;;;;;;23.70;14.15;;;1.20;94.30;;;;;;5038523;28;20103;-74
2023/01/18 07:08:45;;;;;;;20.67;11.93;;;1.00;94.50;;;;;;5035665;28;20025;-72
2023/01/18 07:11:12;;;;;;;21.88;12.50;;;1.10;95.40;;;;;;5017988;28;20664;-72
2023/01/18 07:13:42;;;;;;;23.27;12.10;;;1.00;94.90;;;;;;5036304;28;20053;-73
2023/01/18 07:16:16;;;;;;;;;;;1.00;94.80;;;;;;5037326;28;20028;-73
2023/01/18 07:18:44;;;;;;;20.73;12.13;;;0.90;94.80;;;;;;5035814;28;20283;-73
2023/01/18 07:21:10;;;;;;;21.40;12.60;;;0.90;94.80;;;;;;5036696;28;20555;-74
2023/01/18 07:23:37;;;;;;;21.95;12.48;;;0.90;94.80;;;;;;5037957;28;20020;-73
2023/01/18 07:26:14;;;;;;;22.35;12.40;;;0.90;94.80;;;;;;5031214;28;20032;-73
2023/01/18 07:28:40;;;;;;;23.63;13.02;;;0.90;94.80;;;;;;5038085;28;20029;-73
2023/01/18 07:31:09;;;;;;;28.42;13.00;;;0.90;94.80;;;;;;5024940;28;20407;-73
2023/01/18 07:33:35;;;;;;;20.67;12.55;;;0.90;94.80;;;;;;5030694;28;20482;-74
2023/01/18 07:36:06;;;;;;;25.58;14.25;;;0.90;94.70;;;;;;5036973;28;20025;-73
2023/01/18 07:38:32;;;;;;;26.65;12.25;;;0.90;94.60;;;;;;5036963;28;20037;-73
2023/01/18 07:41:03;;;;;;;22.45;12.73;;;0.90;94.70;;;;;;5036128;28;20021;-72
2023/01/18 07:43:30;;;;;;;20.30;12.27;;;1.00;94.70;;;;;;5038805;28;20029;-72
2023/01/18 07:45:59;;;;;;;20.80;12.70;;;1.00;94.70;;;;;;5036208;28;20087;-72
2023/01/18 07:48:25;;;;;;;20.23;12.50;;;1.00;94.60;;;;;;5039040;28;20035;-74
2023/01/18 07:50:55;;;;;;;18.85;12.65;;;1.00;94.50;;;;;;5038824;28;20039;-74
2023/01/18 07:53:22;;;;;;;24.10;12.90;;;1.00;94.50;;;;;;5035105;28;20096;-73
2023/01/18 07:55:48;;;;;;;23.40;13.07;;;1.00;94.60;;;;;;5039668;28;20028;-74
2023/01/18 07:58:14;;;;;;;26.27;13.00;;;1.00;94.60;;;;;;5015958;28;20041;-74
2023/01/18 08:00:40;;;;;;;23.88;13.40;;;1.00;94.70;;;;;;5038299;28;20029;-74
2023/01/18 08:03:05;;;;;;;20.35;12.30;;;1.00;94.70;;;;;;5010841;28;20112;-74
2023/01/18 08:05:31;;;;;;;23.83;13.10;;;1.10;94.80;;;;;;5035085;28;20036;-73
2023/01/18 08:07:57;;;;;;;22.17;12.95;;;1.10;94.70;;;;;;5034709;28;20029;-74
2023/01/18 08:10:25;;;;;;;23.23;12.35;;;1.00;94.70;;;;;;5022642;28;20032;-74
2023/01/18 08:12:51;;;;;;;27.65;13.73;;;1.10;94.80;;;;;;5013610;28;20566;-74
2023/01/18 08:15:16;;;;;;;22.27;13.35;;;1.10;94.90;;;;;;5035949;28;20035;-74
2023/01/18 08:17:44;;;;;;;25.95;12.10;;;1.00;94.90;;;;;;5039339;28;20029;-75
2023/01/18 08:20:10;;;;;;;24.20;13.77;;;1.00;94.80;;;;;;5037308;28;20033;-74
2023/01/18 08:22:36;;;;;;;27.25;12.77;;;1.00;94.90;;;;;;5034529;28;20476;-74
2023/01/18 08:25:02;;;;;;;19.15;12.88;;;1.00;95.10;;;;;;5036477;28;20051;-73
2023/01/18 08:27:28;;;;;;;20.23;11.88;;;1.10;94.90;;;;;;5029439;28;20776;-73
2023/01/18 08:29:55;;;;;;;19.67;13.05;;;1.30;94.80;;;;;;5034293;28;20103;-73
2023/01/18 08:32:20;;;;;;;20.58;11.45;;;1.60;94.60;;;;;;5037661;28;20625;-74
2023/01/18 08:34:46;;;;;;;22.10;12.30;;;1.90;94.00;;;;;;5033034;28;20033;-74
2023/01/18 08:37:11;;;;;;;23.60;12.65;;;2.50;92.90;;;;;;5035486;28;20025;-73
2023/01/18 08:39:37;;;;;;;19.75;11.85;;;2.90;91.20;;;;;;5035925;28;20115;-73
2023/01/18 08:42:04;;;;;;;17.98;10.52;;;3.10;90.60;;;;;;5038712;28;20053;-74
2023/01/18 08:44:29;;;;;;;23.25;11.90;;;3.00;90.30;;;;;;5031830;28;20086;-73
2023/01/18 08:46:55;;;;;;;22.35;12.20;;;3.00;90.40;;;;;;5034445;28;20029;-73
2023/01/18 08:49:21;;;;;;;19.65;10.60;;;3.10;90.60;;;;;;5019959;28;20800;-74
2023/01/18 08:51:46;;;;;;;18.50;11.15;;;3.30;90.30;;;;;;5036274;28;20087;-74
2023/01/18 08:54:12;;;;;;;19.13;9.93;;;3.70;89.40;;;;;;5036464;28;20037;-74
2023/01/18 08:56:38;;;;;;;21.48;10.88;;;4.40;86.50;;;;;;5033591;28;20087;-74
2023/01/18 08:59:07;;;;;;;21.13;9.98;;;5.10;83.30;;;;;;5036638;28;20138;-75
2023/01/18 09:01:33;;;;;;;19.35;10.68;;;5.50;80.70;;;;;;5038592;28;20035;-74
2023/01/18 09:03:58;;;;;;;14.88;10.23;;;5.80;78.30;;;;;;5035435;28;20037;-74
2023/01/18 09:06:30;;;;;;;17.77;10.20;;;6.00;77.10;;;;;;5038147;28;20025;-74
2023/01/18 09:08:56;;;;;;;18.13;10.82;;;6.00;76.30;;;;;;5031483;28;20070;-74
2023/01/18 09:11:22;;;;;;;17.13;10.65;;;5.80;76.50;;;;;;5034580;28;20028;-74
2023/01/18 09:13:52;;;;;;;20.67;11.35;;;5.80;77.30;;;;;;5041906;28;20025;-74
2023/01/18 09:16:18;;;;;;;19.23;10.48;;;6.00;77.40;;;;;;5036627;28;20435;-75
2023/01/18 09:18:44;;;;;;;18.90;10.43;;;6.20;75.20;;;;;;5020194;28;20872;-75
2023/01/18 09:21:11;;;;;;;17.23;10.45;;;6.50;74.40;;;;;;5037230;28;20029;-75
2023/01/18 09:23:38;;;;;;;15.57;10.27;;;6.60;73.00;;;;;;5021299;28;20060;-73
2023/01/18 09:26:11;;;;;;;18.13;10.38;;;6.70;72.20;;;;;;5033138;28;20761;-73
2023/01/18 09:28:37;;;;;;;16.08;9.70;;;7.00;71.60;;;;;;5041162;28;20545;-73
2023/01/18 09:31:05;;;;;;;18.08;10.77;;;7.30;70.70;;;;;;5033471;28;20056;-74
2023/01/18 09:33:30;;;;;;;16.17;10.80;;;7.60;69.70;;;;;;5036085;28;20336;-74
2023/01/18 09:36:01;;;;;;;17.10;10.63;;;7.90;68.40;;;;;;5034439;28;20032;-74
2023/01/18 09:38:29;;;;;;;15.15;10.35;;;8.40;66.80;;;;;;5015647;28;20127;-74
2023/01/18 09:40:54;;;;;;;19.30;10.68;;;8.70;65.60;;;;;;5036970;28;20030;-74
2023/01/18 09:43:50;;;;;;;20.05;10.63;;;9.00;64.50;;;;;;5037727;28;20403;-73
2023/01/18 09:46:21;;;;;;;16.90;10.00;;;9.10;64.50;;;;;;5025000;28;20041;-74
2023/01/18 09:48:56;;;;;;;16.08;10.00;;;9.40;63.00;;;;;;5037150;28;20103;-74
2023/01/18 09:51:29;;;;;;;21.13;11.60;;;9.30;62.10;;;;;;5021237;28;20091;-74
2023/01/18 09:54:00;;;;;;;17.48;11.05;;;8.90;62.60;;;;;;5044476;28;20036;-74
2023/01/18 09:57:03;;;;;;;16.20;10.68;;;8.50;63.90;;;;;;5039908;28;20877;-74
2023/01/18 09:59:48;;;;;;;17.85;10.60;;;8.20;66.00;;;;;;5019455;28;20619;-74
2023/01/18 10:02:22;;;;;;;15.80;9.85;;;8.20;65.90;;;;;;5029941;28;20451;-74
2023/01/18 10:04:54;;;;;;;16.15;10.30;;;8.40;65.90;;;;;;5032459;28;20024;-74
2023/01/18 10:07:22;;;;;;;26.20;10.68;;;8.30;65.40;;;;;;5032660;28;20032;-74
2023/01/18 10:09:57;;;;;;;17.95;10.98;;;7.90;66.20;;;;;;5035762;28;20026;-74
2023/01/18 10:12:39;;;;;;;15.48;9.38;;;7.60;67.00;;;;;;5035142;28;20111;-74
2023/01/18 10:15:28;;;;;;;15.15;10.00;;;7.20;69.20;;;;;;5036466;28;20061;-74
2023/01/18 10:17:56;;;;;;;16.05;9.63;;;7.00;71.10;;;;;;5036759;28;20437;-75
2023/01/18 10:20:31;;;;;;;16.35;10.15;;;7.30;71.00;;;;;;5041831;28;20381;-74
2023/01/18 10:23:02;;;;;;;17.67;10.05;;;7.80;69.60;;;;;;5015560;28;20025;-74
2023/01/18 10:25:34;;;;;;;15.00;9.52;;;8.30;67.90;;;;;;5034670;28;20075;-75
2023/01/18 10:28:06;;;;;;;18.20;10.68;;;8.40;66.70;;;;;;5011466;28;20033;-74
2023/01/18 10:31:15;;;;;;;16.52;9.75;;;8.50;67.00;;;;;;5042620;28;20068;-74
2023/01/18 10:33:43;;;;;;;14.35;9.77;;;8.80;66.40;;;;;;5032496;28;20111;-74
2023/01/18 10:36:32;;;;;;;14.25;9.73;;;8.80;65.10;;;;;;5033334;28;20063;-73
2023/01/18 10:39:04;;;;;;;15.65;8.77;;;8.90;66.30;;;;;;5036601;28;20032;-73
2023/01/18 10:41:37;;;;;;;16.02;9.13;;;9.30;65.80;;;;;;5039783;28;20105;-74
2023/01/18 10:44:03;;;;;;;18.08;10.27;;;9.70;63.50;;;;;;5030536;28;20744;-73
2023/01/18 10:46:28;;;;;;;15.05;8.20;;;9.80;62.40;;;;;;5037166;28;20109;-74
2023/01/18 10:48:56;;;;;;;13.70;8.27;;;10.00;62.70;;;;;;5035635;28;20044;-74
2023/01/18 10:51:35;;;;;;;13.15;8.05;;;10.20;61.60;;;;;;5038160;28;20094;-73
2023/01/18 10:54:22;;;;;;;15.52;9.45;;;10.30;61.20;;;;;;5040061;28;20032;-74
2023/01/18 10:56:48;;;;;;;16.90;10.10;;;10.40;62.10;;;;;;5040350;28;20608;-73
2023/01/18 10:59:34;;;;;;;15.70;7.68;;;10.50;60.80;;;;;;5035529;28;20030;-73
2023/01/18 11:02:00;;;;;;;13.80;8.38;;;10.80;60.40;;;;;;5038799;28;20681;-73
2023/01/18 11:04:29;;;;;;;14.93;8.70;;;10.90;59.50;;;;;;5031601;28;20024;-72
2023/01/18 11:06:58;;;;;;;11.98;7.45;;;11.10;59.50;;;;;;5042293;28;20080;-73
2023/01/18 11:09:54;;;;;;;13.55;7.70;;;11.20;58.00;;;;;;5037523;28;20087;-73
2023/01/18 11:12:41;;;;;;;10.07;6.97;;;11.10;57.80;;;;;;5040653;28;20025;-72
2023/01/18 11:15:12;;;;;;;14.07;7.95;;;11.00;58.50;;;;;;5032090;28;20036;-75
2023/01/18 11:18:04;;;;;;;13.25;7.70;;;11.10;58.60;;;;;;5038919;28;20064;-74
2023/01/18 11:20:39;;;;;;;12.52;7.05;;;11.00;59.40;;;;;;5029787;28;20037;-74
2023/01/18 11:23:13;;;;;;;13.35;7.20;;;11.00;58.40;;;;;;5042836;28;20023;-73
2023/01/18 11:25:54;;;;;;;12.13;7.55;;;11.00;58.50;;;;;;5035377;28;20036;-73
2023/01/18 11:28:29;;;;;;;12.35;6.93;;;11.00;58.50;;;;;;5034003;28;20039;-73
2023/01/18 11:31:14;;;;;;;13.90;6.72;;;11.10;59.60;;;;;;5040494;28;20462;-73
2023/01/18 11:34:02;;;;;;;12.25;7.00;;;11.30;59.00;;;;;;5035850;28;20145;-74
2023/01/18 11:36:37;;;;;;;14.10;8.53;;;11.60;57.80;;;;;;5039306;28;20052;-72
2023/01/18 11:39:33;;;;;;;10.02;6.35;;;11.70;57.20;;;;;;5043350;28;20037;-72
2023/01/18 11:42:12;;;;;;;17.58;7.18;;;11.90;55.40;;;;;;5022200;28;20041;-73
2023/01/18 11:45:17;;;;;;;13.68;6.45;;;11.70;55.60;;;;;;5031012;28;20017;-73
2023/01/18 11:48:10;;;;;;;11.48;6.97;;;11.70;56.20;;;;;;5043058;28;20044;-73
2023/01/18 11:50:42;;;;;;;11.57;8.05;;;11.60;56.70;;;;;;5041518;28;20021;-74
2023/01/18 11:53:35;;;;;;;10.20;6.13;;;11.60;57.60;;;;;;5023908;28;20091;-74
2023/01/18 11:56:08;;;;;;;11.98;7.15;;;11.60;56.60;;;;;;5042491;28;20037;-74
2023/01/18 11:58:35;;;;;;;13.32;6.75;;;11.70;56.50;;;;;;5024204;28;20041;-73
2023/01/18 12:01:20;;;;;;;16.08;6.97;;;11.70;56.50;;;;;;5028822;28;20052;-74
2023/01/18 12:04:12;;;;;;;12.07;7.30;;;11.90;56.30;;;;;;5017502;28;20037;-74
2023/01/18 12:07:06;;;;;;;12.93;6.28;;;12.00;56.20;;;;;;5032929;28;20045;-74
2023/01/18 12:09:47;;;;;;;13.30;6.97;;;12.10;55.00;;;;;;5036481;28;20100;-74
2023/01/18 12:12:32;;;;;;;10.07;6.05;;;12.30;55.50;;;;;;5031415;28;20029;-74
2023/01/18 12:15:37;;;;;;;12.23;6.93;;;12.50;56.10;;;;;;5033358;28;20021;-74
2023/01/18 12:18:28;;;;;;;11.57;6.45;;;12.60;54.90;;;;;;5034621;28;20043;-74
2023/01/18 12:21:12;;;;;;;12.45;7.05;;;12.90;54.80;;;;;;5017065;28;20473;-74
2023/01/18 12:23:56;;;;;;;9.65;5.72;;;12.90;54.10;;;;;;5033519;28;20017;-74
2023/01/18 12:26:44;;;;;;;9.80;6.13;;;12.70;53.80;;;;;;5030308;28;20029;-73
2023/01/18 12:29:41;;;;;;;9.90;6.38;;;12.50;55.10;;;;;;5031249;28;20050;-74
2023/01/18 12:32:32;;;;;;;12.98;6.25;;;12.50;55.10;;;;;;5034544;28;20411;-73
2023/01/18 12:35:21;;;;;;;11.25;4.82;;;12.50;54.80;;;;;;5038471;28;20035;-74
2023/01/18 12:38:24;;;;;;;9.90;5.05;;;12.60;64.30;;;;;;5036022;28;20411;-75
2023/01/18 12:41:10;;;;;;;12.13;6.20;;;12.70;57.70;;;;;;5047401;28;20025;-79
2023/01/18 12:44:00;;;;;;;11.00;6.32;;;12.50;55.90;;;;;;5025240;28;20045;-74
2023/01/18 12:46:33;;;;;;;11.70;5.50;;;12.50;56.10;;;;;;5043984;28;20030;-75
2023/01/18 12:49:10;;;;;;;9.63;5.60;;;12.50;55.00;;;;;;5031943;28;20025;-75
2023/01/18 12:51:38;;;;;;;10.77;5.60;;;12.30;55.60;;;;;;5030413;28;20017;-75
2023/01/18 12:54:38;;;;;;;10.18;3.92;;;12.10;55.90;;;;;;5030446;28;20028;-75
2023/01/18 12:57:05;;;;;;;7.05;5.10;;;11.90;59.80;;;;;;5053997;28;20036;-74
2023/01/18 13:00:05;;;;;;;8.18;5.20;;;11.60;58.30;;;;;;5049914;28;20029;-74
2023/01/18 13:02:37;;;;;;;9.30;4.70;;;11.30;59.90;;;;;;5040801;28;20029;-75
2023/01/18 13:05:17;;;;;;;9.57;5.57;;;11.20;61.90;;;;;;5027207;28;20024;-75
2023/01/18 13:07:48;;;;;;;9.53;5.00;;;11.30;57.90;;;;;;5049334;28;20017;-74
2023/01/18 13:10:27;;;;;;;10.70;5.20;;;11.40;58.20;;;;;;5054748;28;20343;-74
2023/01/18 13:12:55;;;;;;;11.55;5.07;;;11.60;57.30;;;;;;5054354;28;20845;-75
2023/01/18 13:15:52;;;;;;;10.15;5.00;;;12.00;57.00;;;;;;5022886;28;20052;-75
2023/01/18 13:18:35;;;;;;;11.38;6.10;;;12.30;57.70;;;;;;5048890;28;20057;-75
2023/01/18 13:21:32;;;;;;;11.63;7.35;;;12.40;55.40;;;;;;5025262;28;20030;-74
2023/01/18 13:24:22;;;;;;;10.70;5.18;;;12.40;57.40;;;;;;5027625;28;20029;-75
2023/01/18 13:26:47;;;;;;;10.67;6.00;;;12.20;55.80;;;;;;5037765;28;20048;-74
2023/01/18 13:29:19;;;;;;;8.60;5.68;;;12.30;56.30;;;;;;5030153;28;20778;-75
2023/01/18 13:31:45;;;;;;;7.97;4.88;;;12.30;55.40;;;;;;5055031;28;20517;-76